KPTB/PTB METAR and TAF weather

Enter ICAO airport designator
Station Type Date Time Source
KPTB METAR 2019/06/26 19:55 UTC NOAA

KPTB 261955Z AUTO 01005KT 10SM SCT070 31/13 A3009 RMK AO2 T03130133


Station Type Date Time Source
KPTB Decoded METAR 2019/06/26 19:55 UTC NOAA

Petersburg, Dinwiddie County Airport, VA, United States (KPTB) 37-11N 077-31W
Jun 26, 2019 - 03:55 PM EDT / 2019.06.26 1955 UTC
Wind: from the N (010 degrees) at 6 MPH (5 KT):0
Visibility: 10 mile(s):0
Sky conditions: partly cloudy
Temperature: 88.3 F (31.3 C)
Dew Point: 55.9 F (13.3 C)
Relative Humidity: 33%
Pressure (altimeter): 30.09 in. Hg (1018 hPa)
ob: KPTB 261955Z AUTO 01005KT 10SM SCT070 31/13 A3009 RMK AO2 T03130133
cycle: 20

Station Type Date Time Source
KPTB TAF UTC NOAA

Error!

Example: see airport list